Aeroporto :
LOGIN :

Iscrizione | Disclaimer

   EN    FR    IT 

 










Sommario :    VFR   VFR Marginale   IFR   IFR Intensivo   IFR Molto Intensivo
Visibilità : 
Base nubi : 
>= 8 km
>= 3000ft
5 / 8 km
1000 / 3000 ft
1500m / 5 km
500 / 1000 ft
800 / 1500m
200 / 500 ft
< 800m
< 200 ft
Simboli :   Temporali  Nebbia  Neve Forte  Precipitazioni Forti  Vento > 20 kt
SIGMETs :   Varie  Temporali  Ghiacco  Turbolenza  Onda orograficha  Ceneri Vulcaniche






- Altitudine del aeroporto : -13 ft
- Codice IATA : LEY


EHLE - Lelystad

ULTIMO METAR :
  • 201625Z AUTO 11006KT 070V130 0300 R05/0375N // VV000 01/01 Q1016 RE// NOSIG

METARs OBSOLETI :
  • 201555Z AUTO 10007KT 060V140 0250 R05/0350N // VV000 01/01 Q1016 RE// NOSIG
  • 201525Z AUTO 11007KT 070V130 0250 R05/0350N // VV000 01/01 Q1016 RE// NOSIG
  • 201455Z AUTO 10010KT 070V130 0150 R05/0250N // VV000 01/01 Q1016 RE// NOSIG
  • 201425Z AUTO 10006KT 6000 // NCD 04/03 Q1016 RE// BECMG 2500 BR BKN003

TAF TAF EHLE
Valido dal 20 a 12 ore il 21 a 18 ore UTC


201115Z 2012/2118 09005KT CAVOK
BECMG 2013/2016 2500 BR BKN003
PROB40 2013/2106 0400 FG BKN001
BECMG 2021/2024 1200
BECMG 2106/2109 6000 NSW BKN008
BECMG 2109/2112 11010KT 9999 BKN012



MetMap, La meteo Aeronautica in un colpo d'occhio ! - Copyright ORBIFLY Dicembre 2007 - Disclaimer

ORBIFLY MET'MAP TEAM :

Programmazione e sviluppo : Alexandra Zaïnal
Concezione e sviluppo : Baudouin d'Aumeries
Co-Programmazione e sviluppo : Marc-Olivier Méhu
Supporto tecnico e logistico : Manuel Goepfert
Aiuto per la traduzione : Arnaldo La Scala

Contatto : metmap@orbifly.com




FONTI E CREDITI :

   NOAA